Check out our new PWSWeather beta!
PWSweather.com
Personal Weather Stations
Station Observations
SD92115WX
El Cerrito Stoneybluff, San Diego, CA 92115

El Cerrito StoneybluffSan Diego, CA 92115

Lat: 32.754096, Lon: -117.066705

Elevation: 420

Station Type: Davis Vantage Vue

http://stoneybluff.com

High Low Average
Temperature 63.5°F17.5°C 48.2°F9.0°C 54.8°F12.7°C
Dew Point 52.5°F11.4°C 46.8°F8.2°C 49.6°F9.8°C
Winds 8.7 mph 14.0 kmh Calm Calm 2.0 mph SW3.2 kmh SW
Wind Gusts 14.8 mph23.8 kmh -- 6.0 mph9.7 kmh
Humidity 96% 62% 84%
Pressure 29.85 in1010.8 mb 29.68 in1005.1 mb -
Precipitation 0.14 in3.6 mm - -
Hour Temp Dew Point Humidity Winds Wind Gusts Pressure Precip Precip Rate Daily Precip Total
12:04 AM 50.5°F10.3°C 48.9°F9.4°C 94% Calm Calm -- 29.72 in1006.4 mb 0.07 in1.8 mm 1.05 in26.7 mm 0.07 in1.8 mm
12:09 AM 50.5°F10.3°C 48.9°F9.4°C 94% Calm Calm 1.1 mph1.8 kmh 29.72 in1006.4 mb 0.06 in1.5 mm 0.00 in0.0 mm 0.07 in1.8 mm
12:14 AM 50.5°F10.3°C 49.1°F9.5°C 95% 0.2 mph NW0.3 kmh NW 2.0 mph3.2 kmh 29.72 in1006.4 mb 0.07 in1.8 mm 0.12 in3.0 mm 0.08 in2.0 mm
12:19 AM 50.4°F10.2°C 48.7°F9.3°C 94% Calm Calm -- 29.72 in1006.4 mb 0.07 in1.8 mm 0.00 in0.0 mm 0.08 in2.0 mm
12:24 AM 50.2°F10.1°C 48.7°F9.3°C 95% Calm Calm 2.0 mph3.2 kmh 29.71 in1006.1 mb 0.06 in1.5 mm 0.00 in0.0 mm 0.08 in2.0 mm
12:29 AM 50.2°F10.1°C 48.7°F9.3°C 95% 0.4 mph E0.6 kmh E 2.0 mph3.2 kmh 29.71 in1006.1 mb 0.06 in1.5 mm 0.00 in0.0 mm 0.08 in2.0 mm
12:34 AM 50.2°F10.1°C 48.7°F9.3°C 95% 0.2 mph NNW0.3 kmh NNW 1.1 mph1.8 kmh 29.72 in1006.4 mb 0.05 in1.3 mm 0.00 in0.0 mm 0.08 in2.0 mm
12:39 AM 50.2°F10.1°C 48.7°F9.3°C 95% Calm Calm 1.1 mph1.8 kmh 29.71 in1006.1 mb 0.05 in1.3 mm 0.00 in0.0 mm 0.08 in2.0 mm
12:44 AM 50.2°F10.1°C 48.7°F9.3°C 95% Calm Calm 2.0 mph3.2 kmh 29.71 in1006.1 mb 0.04 in1.0 mm 0.00 in0.0 mm 0.08 in2.0 mm
12:49 AM 50.0°F10.0°C 48.6°F9.2°C 95% Calm Calm 1.1 mph1.8 kmh 29.71 in1006.1 mb 0.03 in0.8 mm 0.00 in0.0 mm 0.08 in2.0 mm
12:54 AM 50.0°F10.0°C 48.6°F9.2°C 95% 0.4 mph NNW0.6 kmh NNW 2.0 mph3.2 kmh 29.71 in1006.1 mb 0.03 in0.8 mm 0.00 in0.0 mm 0.09 in2.3 mm
12:59 AM 49.8°F9.9°C 48.4°F9.1°C 95% 0.4 mph N0.6 kmh N 2.0 mph3.2 kmh 29.71 in1006.1 mb 0.03 in0.8 mm 0.00 in0.0 mm 0.09 in2.3 mm
01:04 AM 49.8°F9.9°C 48.4°F9.1°C 95% 0.7 mph N1.1 kmh N 3.1 mph5.0 kmh 29.71 in1006.1 mb 0.02 in0.5 mm 0.00 in0.0 mm 0.09 in2.3 mm
01:09 AM 49.6°F9.8°C 48.2°F9.0°C 95% Calm Calm 2.0 mph3.2 kmh 29.71 in1006.1 mb 0.02 in0.5 mm 0.00 in0.0 mm 0.09 in2.3 mm
01:14 AM 49.6°F9.8°C 48.2°F9.0°C 95% Calm Calm -- 29.70 in1005.8 mb 0.01 in0.3 mm 0.00 in0.0 mm 0.09 in2.3 mm
01:19 AM 49.6°F9.8°C 48.2°F9.0°C 95% Calm Calm -- 29.70 in1005.8 mb 0.01 in0.3 mm 0.00 in0.0 mm 0.09 in2.3 mm
01:24 AM 49.6°F9.8°C 48.2°F9.0°C 95% Calm Calm 1.1 mph1.8 kmh 29.70 in1005.8 mb 0.01 in0.3 mm 0.00 in0.0 mm 0.09 in2.3 mm
01:29 AM 49.6°F9.8°C 48.2°F9.0°C 95% Calm Calm 1.1 mph1.8 kmh 29.70 in1005.8 mb 0.01 in0.3 mm 0.00 in0.0 mm 0.09 in2.3 mm
01:34 AM 49.5°F9.7°C 48.0°F8.9°C 95% 0.4 mph N0.6 kmh N 2.0 mph3.2 kmh 29.70 in1005.8 mb 0.01 in0.3 mm 0.00 in0.0 mm 0.09 in2.3 mm
01:39 AM 49.6°F9.8°C 48.2°F9.0°C 95% Calm Calm 2.0 mph3.2 kmh 29.70 in1005.8 mb 0.01 in0.3 mm 0.00 in0.0 mm 0.09 in2.3 mm
01:44 AM 49.6°F9.8°C 48.2°F9.0°C 95% 0.4 mph N0.6 kmh N 2.0 mph3.2 kmh 29.70 in1005.8 mb 0.01 in0.3 mm 0.00 in0.0 mm 0.09 in2.3 mm
01:49 AM 49.6°F9.8°C 48.2°F9.0°C 95% Calm Calm 2.0 mph3.2 kmh 29.70 in1005.8 mb 0.01 in0.3 mm 0.00 in0.0 mm 0.09 in2.3 mm
01:54 AM 49.5°F9.7°C 48.0°F8.9°C 95% Calm Calm 2.0 mph3.2 kmh 29.70 in1005.8 mb 0.00 in0.0 mm 0.00 in0.0 mm 0.09 in2.3 mm
01:59 AM 49.5°F9.7°C 48.0°F8.9°C 95% Calm Calm 1.1 mph1.8 kmh 29.70 in1005.8 mb 0.00 in0.0 mm 0.00 in0.0 mm 0.09 in2.3 mm
02:04 AM 49.5°F9.7°C 48.0°F8.9°C 95% Calm Calm -- 29.70 in1005.8 mb 0.00 in0.0 mm 0.00 in0.0 mm 0.09 in2.3 mm
02:09 AM 49.5°F9.7°C 48.0°F8.9°C 95% Calm Calm -- 29.70 in1005.8 mb 0.01 in0.3 mm 0.12 in3.0 mm 0.10 in2.5 mm
02:14 AM 49.5°F9.7°C 48.0°F8.9°C 95% Calm Calm -- 29.70 in1005.8 mb 0.01 in0.3 mm 0.00 in0.0 mm 0.10 in2.5 mm
02:19 AM 49.5°F9.7°C 48.0°F8.9°C 95% Calm Calm -- 29.70 in1005.8 mb 0.01 in0.3 mm 0.00 in0.0 mm 0.10 in2.5 mm
02:24 AM 49.3°F9.6°C 47.8°F8.8°C 95% Calm Calm -- 29.70 in1005.8 mb 0.01 in0.3 mm 0.00 in0.0 mm 0.10 in2.5 mm
02:29 AM 49.3°F9.6°C 47.8°F8.8°C 95% Calm Calm -- 29.70 in1005.8 mb 0.01 in0.3 mm 0.00 in0.0 mm 0.10 in2.5 mm
02:34 AM 49.5°F9.7°C 48.0°F8.9°C 95% Calm Calm -- 29.70 in1005.8 mb 0.01 in0.3 mm 0.00 in0.0 mm 0.10 in2.5 mm
02:39 AM 49.5°F9.7°C 48.0°F8.9°C 95% 0.4 mph NW0.6 kmh NW 2.0 mph3.2 kmh 29.70 in1005.8 mb 0.02 in0.5 mm 0.12 in3.0 mm 0.11 in2.8 mm
02:44 AM 49.5°F9.7°C 48.0°F8.9°C 95% 0.4 mph NNE0.6 kmh NNE 2.0 mph3.2 kmh 29.69 in1005.4 mb 0.02 in0.5 mm 0.00 in0.0 mm 0.11 in2.8 mm
02:49 AM 49.5°F9.7°C 48.0°F8.9°C 95% 1.1 mph NNW1.8 kmh NNW 2.0 mph3.2 kmh 29.70 in1005.8 mb 0.02 in0.5 mm 0.00 in0.0 mm 0.11 in2.8 mm
02:54 AM 49.5°F9.7°C 48.0°F8.9°C 95% 0.4 mph NNW0.6 kmh NNW 2.0 mph3.2 kmh 29.70 in1005.8 mb 0.02 in0.5 mm 0.00 in0.0 mm 0.11 in2.8 mm
02:59 AM 49.5°F9.7°C 48.0°F8.9°C 95% 1.1 mph NW1.8 kmh NW 3.1 mph5.0 kmh 29.70 in1005.8 mb 0.02 in0.5 mm 0.00 in0.0 mm 0.11 in2.8 mm
03:04 AM 49.5°F9.7°C 48.0°F8.9°C 95% 1.3 mph NNE2.1 kmh NNE 3.1 mph5.0 kmh 29.70 in1005.8 mb 0.02 in0.5 mm 0.00 in0.0 mm 0.11 in2.8 mm
03:09 AM 49.5°F9.7°C 48.0°F8.9°C 95% 2.5 mph NNW4.0 kmh NNW 4.3 mph6.9 kmh 29.69 in1005.4 mb 0.02 in0.5 mm 0.00 in0.0 mm 0.12 in3.0 mm
03:14 AM 49.5°F9.7°C 48.0°F8.9°C 95% 0.7 mph NE1.1 kmh NE 3.1 mph5.0 kmh 29.70 in1005.8 mb 0.02 in0.5 mm 0.00 in0.0 mm 0.12 in3.0 mm
03:19 AM 49.3°F9.6°C 47.8°F8.8°C 95% 2.0 mph NW3.2 kmh NW 5.4 mph8.7 kmh 29.70 in1005.8 mb 0.02 in0.5 mm 0.00 in0.0 mm 0.12 in3.0 mm
03:24 AM 49.5°F9.7°C 48.0°F8.9°C 95% 0.9 mph 1.4 kmh 5.4 mph8.7 kmh 29.70 in1005.8 mb 0.03 in0.8 mm 0.12 in3.0 mm 0.13 in3.3 mm
03:29 AM 49.5°F9.7°C 48.0°F8.9°C 95% 1.3 mph NNW2.1 kmh NNW 3.1 mph5.0 kmh 29.69 in1005.4 mb 0.03 in0.8 mm 0.00 in0.0 mm 0.13 in3.3 mm
03:34 AM 49.5°F9.7°C 48.0°F8.9°C 95% 0.9 mph NNW1.4 kmh NNW 4.3 mph6.9 kmh 29.69 in1005.4 mb 0.03 in0.8 mm 0.00 in0.0 mm 0.13 in3.3 mm
03:39 AM 49.5°F9.7°C 48.0°F8.9°C 95% 1.6 mph NW2.6 kmh NW 3.1 mph5.0 kmh 29.69 in1005.4 mb 0.02 in0.5 mm 0.00 in0.0 mm 0.13 in3.3 mm
03:44 AM 49.5°F9.7°C 48.0°F8.9°C 95% 1.3 mph NNW2.1 kmh NNW 4.3 mph6.9 kmh 29.69 in1005.4 mb 0.02 in0.5 mm 0.00 in0.0 mm 0.13 in3.3 mm
03:49 AM 49.5°F9.7°C 48.0°F8.9°C 95% 2.7 mph N4.3 kmh N 5.4 mph8.7 kmh 29.69 in1005.4 mb 0.02 in0.5 mm 0.00 in0.0 mm 0.13 in3.3 mm
03:54 AM 49.5°F9.7°C 48.0°F8.9°C 95% 2.2 mph NNW3.5 kmh NNW 4.3 mph6.9 kmh 29.69 in1005.4 mb 0.02 in0.5 mm 0.00 in0.0 mm 0.13 in3.3 mm
03:59 AM 49.3°F9.6°C 47.8°F8.8°C 95% 1.3 mph NNE2.1 kmh NNE 5.4 mph8.7 kmh 29.69 in1005.4 mb 0.02 in0.5 mm 0.00 in0.0 mm 0.13 in3.3 mm
04:04 AM 49.3°F9.6°C 47.8°F8.8°C 95% 0.2 mph N0.3 kmh N 3.1 mph5.0 kmh 29.69 in1005.4 mb 0.02 in0.5 mm 0.00 in0.0 mm 0.13 in3.3 mm
04:09 AM 49.3°F9.6°C 47.8°F8.8°C 95% 0.4 mph N0.6 kmh N 3.1 mph5.0 kmh 29.69 in1005.4 mb 0.01 in0.3 mm 0.00 in0.0 mm 0.13 in3.3 mm
04:14 AM 49.3°F9.6°C 47.8°F8.8°C 95% 0.2 mph NNW0.3 kmh NNW 2.0 mph3.2 kmh 29.69 in1005.4 mb 0.01 in0.3 mm 0.00 in0.0 mm 0.13 in3.3 mm
04:19 AM 49.3°F9.6°C 47.8°F8.8°C 95% Calm Calm -- 29.69 in1005.4 mb 0.01 in0.3 mm 0.00 in0.0 mm 0.13 in3.3 mm
04:24 AM 49.3°F9.6°C 47.8°F8.8°C 95% 0.2 mph N0.3 kmh N 1.1 mph1.8 kmh 29.69 in1005.4 mb 0.00 in0.0 mm 0.00 in0.0 mm 0.13 in3.3 mm
04:29 AM 49.3°F9.6°C 47.8°F8.8°C 95% Calm Calm 1.1 mph1.8 kmh 29.68 in1005.1 mb 0.01 in0.3 mm 0.12 in3.0 mm 0.14 in3.6 mm
04:34 AM 49.3°F9.6°C 47.8°F8.8°C 95% 0.7 mph N1.1 kmh N 4.3 mph6.9 kmh 29.69 in1005.4 mb 0.01 in0.3 mm 0.00 in0.0 mm 0.14 in3.6 mm
04:39 AM 49.1°F9.5°C 47.7°F8.7°C 95% Calm Calm 2.0 mph3.2 kmh 29.69 in1005.4 mb 0.01 in0.3 mm 0.00 in0.0 mm 0.14 in3.6 mm
04:44 AM 49.1°F9.5°C 47.7°F8.7°C 95% 1.1 mph NE1.8 kmh NE 3.1 mph5.0 kmh 29.69 in1005.4 mb 0.01 in0.3 mm 0.00 in0.0 mm 0.14 in3.6 mm
04:49 AM 48.9°F9.4°C 47.5°F8.6°C 95% 0.2 mph NNW0.3 kmh NNW 2.0 mph3.2 kmh 29.69 in1005.4 mb 0.01 in0.3 mm 0.00 in0.0 mm 0.14 in3.6 mm
04:54 AM 48.9°F9.4°C 47.5°F8.6°C 95% 0.4 mph N0.6 kmh N 2.0 mph3.2 kmh 29.69 in1005.4 mb 0.01 in0.3 mm 0.00 in0.0 mm 0.14 in3.6 mm
04:59 AM 48.7°F9.3°C 47.3°F8.5°C 95% Calm Calm -- 29.69 in1005.4 mb 0.01 in0.3 mm 0.00 in0.0 mm 0.14 in3.6 mm
05:04 AM 48.7°F9.3°C 47.3°F8.5°C 95% Calm Calm -- 29.69 in1005.4 mb 0.01 in0.3 mm 0.00 in0.0 mm 0.14 in3.6 mm
05:09 AM 48.6°F9.2°C 47.1°F8.4°C 95% Calm Calm -- 29.69 in1005.4 mb 0.01 in0.3 mm 0.00 in0.0 mm 0.14 in3.6 mm
05:14 AM 48.6°F9.2°C 47.1°F8.4°C 95% Calm Calm 2.0 mph3.2 kmh 29.70 in1005.8 mb 0.01 in0.3 mm 0.00 in0.0 mm 0.14 in3.6 mm
05:19 AM 48.4°F9.1°C 46.9°F8.3°C 95% Calm Calm -- 29.70 in1005.8 mb 0.01 in0.3 mm 0.00 in0.0 mm 0.14 in3.6 mm
05:24 AM 48.4°F9.1°C 46.9°F8.3°C 95% Calm Calm -- 29.70 in1005.8 mb 0.01 in0.3 mm 0.00 in0.0 mm 0.14 in3.6 mm
05:29 AM 48.4°F9.1°C 46.9°F8.3°C 95% Calm Calm -- 29.70 in1005.8 mb 0.00 in0.0 mm 0.00 in0.0 mm 0.14 in3.6 mm
05:34 AM 48.2°F9.0°C 46.8°F8.2°C 95% Calm Calm -- 29.70 in1005.8 mb 0.00 in0.0 mm 0.00 in0.0 mm 0.14 in3.6 mm
05:39 AM 48.4°F9.1°C 46.9°F8.3°C 95% Calm Calm -- 29.71 in1006.1 mb 0.00 in0.0 mm 0.00 in0.0 mm 0.14 in3.6 mm
05:44 AM 48.2°F9.0°C 46.8°F8.2°C 95% Calm Calm -- 29.71 in1006.1 mb 0.00 in0.0 mm 0.00 in0.0 mm 0.14 in3.6 mm
05:49 AM 48.2°F9.0°C 46.8°F8.2°C 95% Calm Calm -- 29.71 in1006.1 mb 0.00 in0.0 mm 0.00 in0.0 mm 0.14 in3.6 mm
05:54 AM 48.2°F9.0°C 46.8°F8.2°C 95% 0.7 mph WNW1.1 kmh WNW 1.1 mph1.8 kmh 29.71 in1006.1 mb 0.00 in0.0 mm 0.00 in0.0 mm 0.14 in3.6 mm
05:59 AM 48.4°F9.1°C 47.3°F8.5°C 96% Calm Calm 1.1 mph1.8 kmh 29.71 in1006.1 mb 0.00 in0.0 mm 0.00 in0.0 mm 0.14 in3.6 mm
06:04 AM 48.4°F9.1°C 47.3°F8.5°C 96% Calm Calm -- 29.71 in1006.1 mb 0.00 in0.0 mm 0.00 in0.0 mm 0.14 in3.6 mm
06:09 AM 48.6°F9.2°C 47.5°F8.6°C 96% Calm Calm -- 29.71 in1006.1 mb 0.00 in0.0 mm 0.00 in0.0 mm 0.14 in3.6 mm
06:14 AM 48.6°F9.2°C 47.5°F8.6°C 96% Calm Calm -- 29.71 in1006.1 mb 0.00 in0.0 mm 0.00 in0.0 mm 0.14 in3.6 mm
06:19 AM 48.6°F9.2°C 47.5°F8.6°C 96% Calm Calm -- 29.71 in1006.1 mb 0.00 in0.0 mm 0.00 in0.0 mm 0.14 in3.6 mm
06:24 AM 48.7°F9.3°C 47.7°F8.7°C 96% 0.2 mph WSW0.3 kmh WSW 2.0 mph3.2 kmh 29.71 in1006.1 mb 0.00 in0.0 mm 0.00 in0.0 mm 0.14 in3.6 mm
06:29 AM 48.7°F9.3°C 47.7°F8.7°C 96% Calm Calm 1.1 mph1.8 kmh 29.71 in1006.1 mb 0.00 in0.0 mm 0.00 in0.0 mm 0.14 in3.6 mm
06:34 AM 48.9°F9.4°C 47.8°F8.8°C 96% Calm Calm -- 29.71 in1006.1 mb 0.00 in0.0 mm 0.00 in0.0 mm 0.14 in3.6 mm
06:39 AM 48.9°F9.4°C 47.8°F8.8°C 96% Calm Calm -- 29.71 in1006.1 mb 0.00 in0.0 mm 0.00 in0.0 mm 0.14 in3.6 mm
06:44 AM 48.9°F9.4°C 47.8°F8.8°C 96% Calm Calm 1.1 mph1.8 kmh 29.71 in1006.1 mb 0.00 in0.0 mm 0.00 in0.0 mm 0.14 in3.6 mm
06:49 AM 48.9°F9.4°C 47.8°F8.8°C 96% Calm Calm -- 29.71 in1006.1 mb 0.00 in0.0 mm 0.00 in0.0 mm 0.14 in3.6 mm
06:54 AM 49.1°F9.5°C 48.0°F8.9°C 96% 1.3 mph NW2.1 kmh NW 2.0 mph3.2 kmh 29.72 in1006.4 mb 0.00 in0.0 mm 0.00 in0.0 mm 0.14 in3.6 mm
06:59 AM 49.3°F9.6°C 48.2°F9.0°C 96% 1.1 mph NW1.8 kmh NW 4.3 mph6.9 kmh 29.72 in1006.4 mb 0.00 in0.0 mm 0.00 in0.0 mm 0.14 in3.6 mm
07:04 AM 49.5°F9.7°C 48.4°F9.1°C 96% 0.7 mph NW1.1 kmh NW 4.3 mph6.9 kmh 29.72 in1006.4 mb 0.00 in0.0 mm 0.00 in0.0 mm 0.14 in3.6 mm
07:09 AM 49.6°F9.8°C 48.6°F9.2°C 96% 0.9 mph NW1.4 kmh NW 2.0 mph3.2 kmh 29.72 in1006.4 mb 0.00 in0.0 mm 0.00 in0.0 mm 0.14 in3.6 mm
07:14 AM 49.6°F9.8°C 48.2°F9.0°C 95% 1.3 mph NW2.1 kmh NW 4.3 mph6.9 kmh 29.72 in1006.4 mb 0.00 in0.0 mm 0.00 in0.0 mm 0.14 in3.6 mm
07:19 AM 49.6°F9.8°C 48.6°F9.2°C 96% 2.2 mph NNW3.5 kmh NNW 4.3 mph6.9 kmh 29.72 in1006.4 mb 0.00 in0.0 mm 0.00 in0.0 mm 0.14 in3.6 mm
07:24 AM 49.8°F9.9°C 48.7°F9.3°C 96% Calm Calm 3.1 mph5.0 kmh 29.73 in1006.8 mb 0.00 in0.0 mm 0.00 in0.0 mm 0.14 in3.6 mm
07:29 AM 50.0°F10.0°C 48.6°F9.2°C 95% 0.9 mph NW1.4 kmh NW 2.0 mph3.2 kmh 29.73 in1006.8 mb 0.00 in0.0 mm 0.00 in0.0 mm 0.14 in3.6 mm
07:34 AM 50.0°F10.0°C 48.6°F9.2°C 95% 1.1 mph NW1.8 kmh NW 2.0 mph3.2 kmh 29.72 in1006.4 mb 0.00 in0.0 mm 0.00 in0.0 mm 0.14 in3.6 mm
07:39 AM 50.0°F10.0°C 48.6°F9.2°C 95% 0.2 mph NW0.3 kmh NW 2.0 mph3.2 kmh 29.73 in1006.8 mb 0.00 in0.0 mm 0.00 in0.0 mm 0.14 in3.6 mm
07:44 AM 50.2°F10.1°C 48.7°F9.3°C 95% Calm Calm 1.1 mph1.8 kmh 29.73 in1006.8 mb 0.00 in0.0 mm 0.00 in0.0 mm 0.14 in3.6 mm
07:49 AM 50.2°F10.1°C 48.7°F9.3°C 95% Calm Calm 2.0 mph3.2 kmh 29.73 in1006.8 mb 0.00 in0.0 mm 0.00 in0.0 mm 0.14 in3.6 mm
07:54 AM 50.4°F10.2°C 49.3°F9.6°C 96% Calm Calm -- 29.73 in1006.8 mb 0.00 in0.0 mm 0.00 in0.0 mm 0.14 in3.6 mm
07:59 AM 50.5°F10.3°C 49.5°F9.7°C 96% Calm Calm -- 29.73 in1006.8 mb 0.00 in0.0 mm 0.00 in0.0 mm 0.14 in3.6 mm
08:04 AM 50.9°F10.5°C 49.8°F9.9°C 96% Calm Calm -- 29.73 in1006.8 mb 0.00 in0.0 mm 0.00 in0.0 mm 0.14 in3.6 mm
08:09 AM 51.1°F10.6°C 49.6°F9.8°C 95% Calm Calm 1.1 mph1.8 kmh 29.74 in1007.1 mb 0.00 in0.0 mm 0.00 in0.0 mm 0.14 in3.6 mm
08:14 AM 51.3°F10.7°C 49.8°F9.9°C 95% Calm Calm -- 29.74 in1007.1 mb 0.00 in0.0 mm 0.00 in0.0 mm 0.14 in3.6 mm
08:19 AM 51.4°F10.8°C 50.0°F10.0°C 95% Calm Calm -- 29.74 in1007.1 mb 0.00 in0.0 mm 0.00 in0.0 mm 0.14 in3.6 mm
08:24 AM 51.6°F10.9°C 50.2°F10.1°C 95% Calm Calm -- 29.74 in1007.1 mb 0.00 in0.0 mm 0.00 in0.0 mm 0.14 in3.6 mm
08:29 AM 51.6°F10.9°C 50.2°F10.1°C 95% Calm Calm -- 29.74 in1007.1 mb 0.00 in0.0 mm 0.00 in0.0 mm 0.14 in3.6 mm
08:34 AM 51.6°F10.9°C 50.2°F10.1°C 95% Calm Calm -- 29.74 in1007.1 mb 0.00 in0.0 mm 0.00 in0.0 mm 0.14 in3.6 mm
08:39 AM 51.6°F10.9°C 50.0°F10.0°C 94% 0.4 mph SW0.6 kmh SW 2.0 mph3.2 kmh 29.73 in1006.8 mb 0.00 in0.0 mm 0.00 in0.0 mm 0.14 in3.6 mm
08:44 AM 52.0°F11.1°C 50.5°F10.3°C 95% 0.2 mph S0.3 kmh S 2.0 mph3.2 kmh 29.73 in1006.8 mb 0.00 in0.0 mm 0.00 in0.0 mm 0.14 in3.6 mm
08:49 AM 52.5°F11.4°C 51.1°F10.6°C 95% Calm Calm 1.1 mph1.8 kmh 29.73 in1006.8 mb 0.00 in0.0 mm 0.00 in0.0 mm 0.14 in3.6 mm
08:54 AM 52.5°F11.4°C 50.5°F10.3°C 93% 0.9 mph SE1.4 kmh SE 4.3 mph6.9 kmh 29.73 in1006.8 mb 0.00 in0.0 mm 0.00 in0.0 mm 0.14 in3.6 mm
08:59 AM 53.1°F11.7°C 51.1°F10.6°C 93% 0.9 mph SW1.4 kmh SW 2.0 mph3.2 kmh 29.73 in1006.8 mb 0.00 in0.0 mm 0.00 in0.0 mm 0.14 in3.6 mm
09:04 AM 53.4°F11.9°C 51.4°F10.8°C 93% Calm Calm 2.0 mph3.2 kmh 29.74 in1007.1 mb 0.00 in0.0 mm 0.00 in0.0 mm 0.14 in3.6 mm
09:09 AM 53.8°F12.1°C 51.4°F10.8°C 92% Calm Calm -- 29.73 in1006.8 mb 0.00 in0.0 mm 0.00 in0.0 mm 0.14 in3.6 mm
09:14 AM 54.3°F12.4°C 51.8°F11.0°C 91% 1.1 mph SW1.8 kmh SW 4.3 mph6.9 kmh 29.73 in1006.8 mb 0.00 in0.0 mm 0.00 in0.0 mm 0.14 in3.6 mm
09:19 AM 54.7°F12.6°C 51.8°F11.0°C 90% 1.6 mph SE2.6 kmh SE 4.3 mph6.9 kmh 29.74 in1007.1 mb 0.00 in0.0 mm 0.00 in0.0 mm 0.14 in3.6 mm
09:24 AM 55.0°F12.8°C 51.6°F10.9°C 88% 0.2 mph SW0.3 kmh SW 5.4 mph8.7 kmh 29.74 in1007.1 mb 0.00 in0.0 mm 0.00 in0.0 mm 0.14 in3.6 mm
09:29 AM 55.6°F13.1°C 52.2°F11.2°C 88% 0.2 mph NW0.3 kmh NW 2.0 mph3.2 kmh 29.74 in1007.1 mb 0.00 in0.0 mm 0.00 in0.0 mm 0.14 in3.6 mm
09:34 AM 55.4°F13.0°C 50.7°F10.4°C 84% 0.9 mph SW1.4 kmh SW 3.1 mph5.0 kmh 29.75 in1007.5 mb 0.00 in0.0 mm 0.00 in0.0 mm 0.14 in3.6 mm
09:39 AM 56.3°F13.5°C 52.5°F11.4°C 87% 0.2 mph W0.3 kmh W 2.0 mph3.2 kmh 29.75 in1007.5 mb 0.00 in0.0 mm 0.00 in0.0 mm 0.14 in3.6 mm
09:44 AM 56.5°F13.6°C 51.1°F10.6°C 82% 0.7 mph NW1.1 kmh NW 3.1 mph5.0 kmh 29.75 in1007.5 mb 0.00 in0.0 mm 0.00 in0.0 mm 0.14 in3.6 mm
09:49 AM 56.8°F13.8°C 51.4°F10.8°C 82% 1.3 mph W2.1 kmh W 3.1 mph5.0 kmh 29.75 in1007.5 mb 0.00 in0.0 mm 0.00 in0.0 mm 0.14 in3.6 mm
09:54 AM 57.7°F14.3°C 52.3°F11.3°C 82% 0.7 mph N1.1 kmh N 3.1 mph5.0 kmh 29.75 in1007.5 mb 0.00 in0.0 mm 0.00 in0.0 mm 0.14 in3.6 mm
09:59 AM 57.7°F14.3°C 50.5°F10.3°C 77% 2.2 mph W3.5 kmh W 5.4 mph8.7 kmh 29.75 in1007.5 mb 0.00 in0.0 mm 0.00 in0.0 mm 0.14 in3.6 mm
10:04 AM 57.6°F14.2°C 50.4°F10.2°C 77% 1.6 mph NW2.6 kmh NW 6.3 mph10.1 kmh 29.75 in1007.5 mb 0.00 in0.0 mm 0.00 in0.0 mm 0.14 in3.6 mm
10:09 AM 57.4°F14.1°C 48.7°F9.3°C 73% 0.4 mph NE0.6 kmh NE 6.3 mph10.1 kmh 29.75 in1007.5 mb 0.00 in0.0 mm 0.00 in0.0 mm 0.14 in3.6 mm
10:14 AM 57.9°F14.4°C 50.0°F10.0°C 75% 0.4 mph WSW0.6 kmh WSW 4.3 mph6.9 kmh 29.75 in1007.5 mb 0.00 in0.0 mm 0.00 in0.0 mm 0.14 in3.6 mm
10:19 AM 58.8°F14.9°C 51.3°F10.7°C 76% Calm Calm 2.0 mph3.2 kmh 29.75 in1007.5 mb 0.00 in0.0 mm 0.00 in0.0 mm 0.14 in3.6 mm
10:24 AM 59.2°F15.1°C 51.3°F10.7°C 75% 1.8 mph NE2.9 kmh NE 4.3 mph6.9 kmh 29.75 in1007.5 mb 0.00 in0.0 mm 0.00 in0.0 mm 0.14 in3.6 mm
10:29 AM 59.2°F15.1°C 51.3°F10.7°C 75% 2.5 mph NW4.0 kmh NW 9.6 mph15.4 kmh 29.75 in1007.5 mb 0.00 in0.0 mm 0.00 in0.0 mm 0.14 in3.6 mm
10:34 AM 59.2°F15.1°C 50.2°F10.1°C 72% 0.9 mph WSW1.4 kmh WSW 6.3 mph10.1 kmh 29.75 in1007.5 mb 0.00 in0.0 mm 0.00 in0.0 mm 0.14 in3.6 mm
10:39 AM 59.4°F15.2°C 50.4°F10.2°C 72% 2.0 mph N3.2 kmh N 5.4 mph8.7 kmh 29.75 in1007.5 mb 0.00 in0.0 mm 0.00 in0.0 mm 0.14 in3.6 mm
10:44 AM 59.7°F15.4°C 51.4°F10.8°C 74% 0.2 mph WNW0.3 kmh WNW 4.3 mph6.9 kmh 29.75 in1007.5 mb 0.00 in0.0 mm 0.00 in0.0 mm 0.14 in3.6 mm
10:49 AM 59.5°F15.3°C 50.2°F10.1°C 71% 1.1 mph ESE1.8 kmh ESE 6.3 mph10.1 kmh 29.75 in1007.5 mb 0.00 in0.0 mm 0.00 in0.0 mm 0.14 in3.6 mm
10:54 AM 60.1°F15.6°C 50.7°F10.4°C 71% 0.2 mph NE0.3 kmh NE 2.0 mph3.2 kmh 29.75 in1007.5 mb 0.00 in0.0 mm 0.00 in0.0 mm 0.14 in3.6 mm
10:59 AM 60.4°F15.8°C 49.8°F9.9°C 68% 0.7 mph WSW1.1 kmh WSW 6.3 mph10.1 kmh 29.75 in1007.5 mb 0.00 in0.0 mm 0.00 in0.0 mm 0.14 in3.6 mm
11:04 AM 60.4°F15.8°C 48.6°F9.2°C 65% 3.4 mph NW5.5 kmh NW 6.3 mph10.1 kmh 29.75 in1007.5 mb 0.00 in0.0 mm 0.00 in0.0 mm 0.14 in3.6 mm
11:09 AM 60.6°F15.9°C 50.4°F10.2°C 69% 3.1 mph WNW5.0 kmh WNW 7.4 mph11.9 kmh 29.75 in1007.5 mb 0.00 in0.0 mm 0.00 in0.0 mm 0.14 in3.6 mm
11:14 AM 60.4°F15.8°C 48.2°F9.0°C 64% 2.9 mph NW4.7 kmh NW 7.4 mph11.9 kmh 29.75 in1007.5 mb 0.00 in0.0 mm 0.00 in0.0 mm 0.14 in3.6 mm
11:19 AM 60.6°F15.9°C 48.7°F9.3°C 65% 4.9 mph W7.9 kmh W 9.6 mph15.4 kmh 29.75 in1007.5 mb 0.00 in0.0 mm 0.00 in0.0 mm 0.14 in3.6 mm
11:24 AM 61.0°F16.1°C 48.7°F9.3°C 64% 5.1 mph NW8.2 kmh NW 9.6 mph15.4 kmh 29.75 in1007.5 mb 0.00 in0.0 mm 0.00 in0.0 mm 0.14 in3.6 mm
11:29 AM 60.6°F15.9°C 48.4°F9.1°C 64% 4.3 mph N6.9 kmh N 9.6 mph15.4 kmh 29.75 in1007.5 mb 0.00 in0.0 mm 0.00 in0.0 mm 0.14 in3.6 mm
11:34 AM 60.3°F15.7°C 48.0°F8.9°C 64% 4.9 mph WSW7.9 kmh WSW 10.5 mph16.9 kmh 29.75 in1007.5 mb 0.00 in0.0 mm 0.00 in0.0 mm 0.14 in3.6 mm
11:39 AM 60.4°F15.8°C 50.2°F10.1°C 69% 5.6 mph WNW9.0 kmh WNW 10.5 mph16.9 kmh 29.74 in1007.1 mb 0.00 in0.0 mm 0.00 in0.0 mm 0.14 in3.6 mm
11:44 AM 61.2°F16.2°C 50.5°F10.3°C 68% 5.4 mph S8.7 kmh S 10.5 mph16.9 kmh 29.74 in1007.1 mb 0.00 in0.0 mm 0.00 in0.0 mm 0.14 in3.6 mm
11:49 AM 61.5°F16.4°C 50.9°F10.5°C 68% 3.8 mph WNW6.1 kmh WNW 10.5 mph16.9 kmh 29.74 in1007.1 mb 0.00 in0.0 mm 0.00 in0.0 mm 0.14 in3.6 mm
11:54 AM 61.5°F16.4°C 50.0°F10.0°C 66% 5.4 mph WSW8.7 kmh WSW 12.8 mph20.6 kmh 29.74 in1007.1 mb 0.00 in0.0 mm 0.00 in0.0 mm 0.14 in3.6 mm
11:59 AM 61.3°F16.3°C 49.5°F9.7°C 65% 4.5 mph W7.2 kmh W 8.5 mph13.7 kmh 29.74 in1007.1 mb 0.00 in0.0 mm 0.00 in0.0 mm 0.14 in3.6 mm
12:04 PM 61.5°F16.4°C 49.3°F9.6°C 64% 3.1 mph WNW5.0 kmh WNW 9.6 mph15.4 kmh 29.74 in1007.1 mb 0.00 in0.0 mm 0.00 in0.0 mm 0.14 in3.6 mm
12:09 PM 62.1°F16.7°C 50.5°F10.3°C 66% 3.4 mph W5.5 kmh W 7.4 mph11.9 kmh 29.74 in1007.1 mb 0.00 in0.0 mm 0.00 in0.0 mm 0.14 in3.6 mm
12:14 PM 61.7°F16.5°C 48.9°F9.4°C 63% 3.8 mph WSW6.1 kmh WSW 10.5 mph16.9 kmh 29.74 in1007.1 mb 0.00 in0.0 mm 0.00 in0.0 mm 0.14 in3.6 mm
12:19 PM 61.2°F16.2°C 48.9°F9.4°C 64% 2.9 mph WSW4.7 kmh WSW 8.5 mph13.7 kmh 29.75 in1007.5 mb 0.00 in0.0 mm 0.00 in0.0 mm 0.14 in3.6 mm
12:24 PM 61.2°F16.2°C 48.9°F9.4°C 64% 5.8 mph WSW9.3 kmh WSW 8.5 mph13.7 kmh 29.74 in1007.1 mb 0.00 in0.0 mm 0.00 in0.0 mm 0.14 in3.6 mm
12:29 PM 61.5°F16.4°C 49.3°F9.6°C 64% 1.8 mph W2.9 kmh W 6.3 mph10.1 kmh 29.74 in1007.1 mb 0.00 in0.0 mm 0.00 in0.0 mm 0.14 in3.6 mm
12:34 PM 62.1°F16.7°C 49.8°F9.9°C 64% 2.0 mph W3.2 kmh W 6.3 mph10.1 kmh 29.75 in1007.5 mb 0.00 in0.0 mm 0.00 in0.0 mm 0.14 in3.6 mm
12:39 PM 62.1°F16.7°C 48.9°F9.4°C 62% 0.2 mph NNW0.3 kmh NNW 7.4 mph11.9 kmh 29.74 in1007.1 mb 0.00 in0.0 mm 0.00 in0.0 mm 0.14 in3.6 mm
12:44 PM 61.7°F16.5°C 48.9°F9.4°C 63% 6.7 mph WSW10.8 kmh WSW 13.9 mph22.4 kmh 29.74 in1007.1 mb 0.00 in0.0 mm 0.00 in0.0 mm 0.14 in3.6 mm
12:49 PM 61.7°F16.5°C 48.9°F9.4°C 63% 6.5 mph SW10.5 kmh SW 11.6 mph18.7 kmh 29.74 in1007.1 mb 0.00 in0.0 mm 0.00 in0.0 mm 0.14 in3.6 mm
12:54 PM 61.3°F16.3°C 49.5°F9.7°C 65% 6.7 mph W10.8 kmh W 11.6 mph18.7 kmh 29.74 in1007.1 mb 0.00 in0.0 mm 0.00 in0.0 mm 0.14 in3.6 mm
12:59 PM 61.3°F16.3°C 49.8°F9.9°C 66% 5.1 mph WNW8.2 kmh WNW 14.8 mph23.8 kmh 29.74 in1007.1 mb 0.00 in0.0 mm 0.00 in0.0 mm 0.14 in3.6 mm
01:04 PM 61.3°F16.3°C 49.1°F9.5°C 64% 8.7 mph WSW14.0 kmh WSW 12.8 mph20.6 kmh 29.74 in1007.1 mb 0.00 in0.0 mm 0.00 in0.0 mm 0.14 in3.6 mm
01:09 PM 61.7°F16.5°C 48.9°F9.4°C 63% 5.6 mph WNW9.0 kmh WNW 11.6 mph18.7 kmh 29.74 in1007.1 mb 0.00 in0.0 mm 0.00 in0.0 mm 0.14 in3.6 mm
01:14 PM 62.1°F16.7°C 49.3°F9.6°C 63% 6.0 mph WSW9.7 kmh WSW 11.6 mph18.7 kmh 29.74 in1007.1 mb 0.00 in0.0 mm 0.00 in0.0 mm 0.14 in3.6 mm
01:19 PM 61.7°F16.5°C 48.6°F9.2°C 62% 7.4 mph WNW11.9 kmh WNW 13.9 mph22.4 kmh 29.73 in1006.8 mb 0.00 in0.0 mm 0.00 in0.0 mm 0.14 in3.6 mm
01:24 PM 61.2°F16.2°C 48.0°F8.9°C 62% 5.8 mph SSW9.3 kmh SSW 13.9 mph22.4 kmh 29.73 in1006.8 mb 0.00 in0.0 mm 0.00 in0.0 mm 0.14 in3.6 mm
01:29 PM 61.0°F16.1°C 49.5°F9.7°C 66% 5.4 mph SSW8.7 kmh SSW 10.5 mph16.9 kmh 29.73 in1006.8 mb 0.00 in0.0 mm 0.00 in0.0 mm 0.14 in3.6 mm
01:34 PM 61.3°F16.3°C 50.4°F10.2°C 67% 5.1 mph SSW8.2 kmh SSW 11.6 mph18.7 kmh 29.73 in1006.8 mb 0.00 in0.0 mm 0.00 in0.0 mm 0.14 in3.6 mm
01:39 PM 62.1°F16.7°C 50.2°F10.1°C 65% 6.0 mph WSW9.7 kmh WSW 9.6 mph15.4 kmh 29.73 in1006.8 mb 0.00 in0.0 mm 0.00 in0.0 mm 0.14 in3.6 mm
01:44 PM 61.9°F16.6°C 49.6°F9.8°C 64% 4.0 mph WSW6.4 kmh WSW 9.6 mph15.4 kmh 29.73 in1006.8 mb 0.00 in0.0 mm 0.00 in0.0 mm 0.14 in3.6 mm
01:49 PM 62.4°F16.9°C 49.6°F9.8°C 63% 6.0 mph WSW9.7 kmh WSW 9.6 mph15.4 kmh 29.73 in1006.8 mb 0.00 in0.0 mm 0.00 in0.0 mm 0.14 in3.6 mm
01:54 PM 62.1°F16.7°C 50.2°F10.1°C 65% 1.3 mph SW2.1 kmh SW 11.6 mph18.7 kmh 29.73 in1006.8 mb 0.00 in0.0 mm 0.00 in0.0 mm 0.14 in3.6 mm
01:59 PM 62.6°F17.0°C 49.5°F9.7°C 62% 4.5 mph SSW7.2 kmh SSW 9.6 mph15.4 kmh 29.73 in1006.8 mb 0.00 in0.0 mm 0.00 in0.0 mm 0.14 in3.6 mm
02:04 PM 62.8°F17.1°C 50.0°F10.0°C 63% 2.5 mph NW4.0 kmh NW 9.6 mph15.4 kmh 29.73 in1006.8 mb 0.00 in0.0 mm 0.00 in0.0 mm 0.14 in3.6 mm
02:09 PM 63.0°F17.2°C 51.1°F10.6°C 65% 4.3 mph WSW6.9 kmh WSW 11.6 mph18.7 kmh 29.73 in1006.8 mb 0.00 in0.0 mm 0.00 in0.0 mm 0.14 in3.6 mm
02:14 PM 63.5°F17.5°C 50.7°F10.4°C 63% 4.3 mph NW6.9 kmh NW 12.8 mph20.6 kmh 29.73 in1006.8 mb 0.00 in0.0 mm 0.00 in0.0 mm 0.14 in3.6 mm
02:19 PM 63.3°F17.4°C 51.4°F10.8°C 65% 3.8 mph SSW6.1 kmh SSW 8.5 mph13.7 kmh 29.73 in1006.8 mb 0.00 in0.0 mm 0.00 in0.0 mm 0.14 in3.6 mm
02:24 PM 63.1°F17.3°C 50.7°F10.4°C 64% 7.4 mph W11.9 kmh W 12.8 mph20.6 kmh 29.74 in1007.1 mb 0.00 in0.0 mm 0.00 in0.0 mm 0.14 in3.6 mm
02:29 PM 62.8°F17.1°C 51.6°F10.9°C 67% 8.3 mph S13.4 kmh S 12.8 mph20.6 kmh 29.74 in1007.1 mb 0.00 in0.0 mm 0.00 in0.0 mm 0.14 in3.6 mm
02:34 PM 62.2°F16.8°C 50.7°F10.4°C 66% 8.7 mph S14.0 kmh S 13.9 mph22.4 kmh 29.74 in1007.1 mb 0.00 in0.0 mm 0.00 in0.0 mm 0.14 in3.6 mm
02:39 PM 62.4°F16.9°C 50.9°F10.5°C 66% 7.6 mph SSW12.2 kmh SSW 12.8 mph20.6 kmh 29.74 in1007.1 mb 0.00 in0.0 mm 0.00 in0.0 mm 0.14 in3.6 mm
02:44 PM 62.6°F17.0°C 51.1°F10.6°C 66% 6.7 mph SW10.8 kmh SW 12.8 mph20.6 kmh 29.74 in1007.1 mb 0.00 in0.0 mm 0.00 in0.0 mm 0.14 in3.6 mm
02:49 PM 62.2°F16.8°C 50.4°F10.2°C 65% 7.4 mph S11.9 kmh S 14.8 mph23.8 kmh 29.74 in1007.1 mb 0.00 in0.0 mm 0.00 in0.0 mm 0.14 in3.6 mm
02:54 PM 62.1°F16.7°C 50.5°F10.3°C 66% 6.5 mph SW10.5 kmh SW 14.8 mph23.8 kmh 29.75 in1007.5 mb 0.00 in0.0 mm 0.00 in0.0 mm 0.14 in3.6 mm
02:59 PM 61.9°F16.6°C 50.0°F10.0°C 65% 6.3 mph WSW10.1 kmh WSW 10.5 mph16.9 kmh 29.74 in1007.1 mb 0.00 in0.0 mm 0.00 in0.0 mm 0.14 in3.6 mm
03:04 PM 61.5°F16.4°C 49.3°F9.6°C 64% 7.4 mph SE11.9 kmh SE 12.8 mph20.6 kmh 29.75 in1007.5 mb 0.00 in0.0 mm 0.00 in0.0 mm 0.14 in3.6 mm
03:09 PM 61.9°F16.6°C 50.0°F10.0°C 65% 5.6 mph SW9.0 kmh SW 10.5 mph16.9 kmh 29.75 in1007.5 mb 0.00 in0.0 mm 0.00 in0.0 mm 0.14 in3.6 mm
03:14 PM 61.5°F16.4°C 48.7°F9.3°C 63% 5.4 mph SSW8.7 kmh SSW 11.6 mph18.7 kmh 29.75 in1007.5 mb 0.00 in0.0 mm 0.00 in0.0 mm 0.14 in3.6 mm
03:19 PM 61.5°F16.4°C 48.7°F9.3°C 63% 7.2 mph WSW11.6 kmh WSW 11.6 mph18.7 kmh 29.75 in1007.5 mb 0.00 in0.0 mm 0.00 in0.0 mm 0.14 in3.6 mm
03:24 PM 61.3°F16.3°C 50.4°F10.2°C 67% 3.4 mph WSW5.5 kmh WSW 11.6 mph18.7 kmh 29.75 in1007.5 mb 0.00 in0.0 mm 0.00 in0.0 mm 0.14 in3.6 mm
03:29 PM 61.3°F16.3°C 50.7°F10.4°C 68% 4.3 mph WSW6.9 kmh WSW 12.8 mph20.6 kmh 29.75 in1007.5 mb 0.00 in0.0 mm 0.00 in0.0 mm 0.14 in3.6 mm
03:34 PM 62.1°F16.7°C 51.8°F11.0°C 69% 4.3 mph WNW6.9 kmh WNW 8.5 mph13.7 kmh 29.75 in1007.5 mb 0.00 in0.0 mm 0.00 in0.0 mm 0.14 in3.6 mm
03:39 PM 61.9°F16.6°C 51.3°F10.7°C 68% 7.2 mph SSW11.6 kmh SSW 11.6 mph18.7 kmh 29.75 in1007.5 mb 0.00 in0.0 mm 0.00 in0.0 mm 0.14 in3.6 mm
03:44 PM 62.2°F16.8°C 51.1°F10.6°C 67% 5.4 mph S8.7 kmh S 10.5 mph16.9 kmh 29.75 in1007.5 mb 0.00 in0.0 mm 0.00 in0.0 mm 0.14 in3.6 mm
03:49 PM 61.9°F16.6°C 50.4°F10.2°C 66% 5.8 mph SW9.3 kmh SW 12.8 mph20.6 kmh 29.75 in1007.5 mb 0.00 in0.0 mm 0.00 in0.0 mm 0.14 in3.6 mm
03:54 PM 61.5°F16.4°C 50.9°F10.5°C 68% 5.4 mph SW8.7 kmh SW 11.6 mph18.7 kmh 29.75 in1007.5 mb 0.00 in0.0 mm 0.00 in0.0 mm 0.14 in3.6 mm
03:59 PM 61.2°F16.2°C 50.9°F10.5°C 69% 4.7 mph WSW7.6 kmh WSW 10.5 mph16.9 kmh 29.75 in1007.5 mb 0.00 in0.0 mm 0.00 in0.0 mm 0.14 in3.6 mm
04:04 PM 61.0°F16.1°C 50.7°F10.4°C 69% 4.3 mph SW6.9 kmh SW 9.6 mph15.4 kmh 29.75 in1007.5 mb 0.00 in0.0 mm 0.00 in0.0 mm 0.14 in3.6 mm
04:09 PM 60.6°F15.9°C 50.4°F10.2°C 69% 4.5 mph SW7.2 kmh SW 8.5 mph13.7 kmh 29.75 in1007.5 mb 0.00 in0.0 mm 0.00 in0.0 mm 0.14 in3.6 mm
04:14 PM 60.8°F16.0°C 51.3°F10.7°C 71% 5.1 mph WSW8.2 kmh WSW 7.4 mph11.9 kmh 29.75 in1007.5 mb 0.00 in0.0 mm 0.00 in0.0 mm 0.14 in3.6 mm
04:19 PM 60.4°F15.8°C 51.8°F11.0°C 73% 5.6 mph WNW9.0 kmh WNW 11.6 mph18.7 kmh 29.75 in1007.5 mb 0.00 in0.0 mm 0.00 in0.0 mm 0.14 in3.6 mm
04:24 PM 60.3°F15.7°C 52.0°F11.1°C 74% 5.4 mph WSW8.7 kmh WSW 12.8 mph20.6 kmh 29.75 in1007.5 mb 0.00 in0.0 mm 0.00 in0.0 mm 0.14 in3.6 mm
04:29 PM 60.4°F15.8°C 52.5°F11.4°C 75% 4.7 mph SW7.6 kmh SW 8.5 mph13.7 kmh 29.75 in1007.5 mb 0.00 in0.0 mm 0.00 in0.0 mm 0.14 in3.6 mm
04:34 PM 60.3°F15.7°C 52.0°F11.1°C 74% 3.8 mph WNW6.1 kmh WNW 12.8 mph20.6 kmh 29.76 in1007.8 mb 0.00 in0.0 mm 0.00 in0.0 mm 0.14 in3.6 mm
04:39 PM 60.1°F15.6°C 51.4°F10.8°C 73% 6.7 mph SW10.8 kmh SW 10.5 mph16.9 kmh 29.76 in1007.8 mb 0.00 in0.0 mm 0.00 in0.0 mm 0.14 in3.6 mm
04:44 PM 60.1°F15.6°C 51.8°F11.0°C 74% 4.7 mph NW7.6 kmh NW 11.6 mph18.7 kmh 29.76 in1007.8 mb 0.00 in0.0 mm 0.00 in0.0 mm 0.14 in3.6 mm
04:49 PM 60.3°F15.7°C 51.6°F10.9°C 73% 3.6 mph W5.8 kmh W 6.3 mph10.1 kmh 29.76 in1007.8 mb 0.00 in0.0 mm 0.00 in0.0 mm 0.14 in3.6 mm
04:54 PM 59.9°F15.5°C 51.6°F10.9°C 74% 5.8 mph W9.3 kmh W 11.6 mph18.7 kmh 29.76 in1007.8 mb 0.00 in0.0 mm 0.00 in0.0 mm 0.14 in3.6 mm
04:59 PM 59.9°F15.5°C 52.0°F11.1°C 75% 3.4 mph N5.5 kmh N 9.6 mph15.4 kmh 29.77 in1008.1 mb 0.00 in0.0 mm 0.00 in0.0 mm 0.14 in3.6 mm
05:05 PM 59.4°F15.2°C 51.4°F10.8°C 75% 4.7 mph WSW7.6 kmh WSW 10.5 mph16.9 kmh 29.77 in1008.1 mb 0.00 in0.0 mm 0.00 in0.0 mm 0.14 in3.6 mm
05:10 PM 59.2°F15.1°C 51.6°F10.9°C 76% 3.8 mph SW6.1 kmh SW 7.4 mph11.9 kmh 29.76 in1007.8 mb 0.00 in0.0 mm 0.00 in0.0 mm 0.14 in3.6 mm
05:15 PM 58.6°F14.8°C 51.1°F10.6°C 76% 4.3 mph W6.9 kmh W 8.5 mph13.7 kmh 29.77 in1008.1 mb 0.00 in0.0 mm 0.00 in0.0 mm 0.14 in3.6 mm
05:20 PM 58.3°F14.6°C 51.1°F10.6°C 77% 1.1 mph SW1.8 kmh SW 6.3 mph10.1 kmh 29.76 in1007.8 mb 0.00 in0.0 mm 0.00 in0.0 mm 0.14 in3.6 mm
05:25 PM 57.7°F14.3°C 50.9°F10.5°C 78% 3.6 mph SW5.8 kmh SW 5.4 mph8.7 kmh 29.76 in1007.8 mb 0.00 in0.0 mm 0.00 in0.0 mm 0.14 in3.6 mm
05:30 PM 57.6°F14.2°C 51.1°F10.6°C 79% 3.4 mph SW5.5 kmh SW 8.5 mph13.7 kmh 29.77 in1008.1 mb 0.00 in0.0 mm 0.00 in0.0 mm 0.14 in3.6 mm
05:35 PM 57.4°F14.1°C 51.3°F10.7°C 80% 2.2 mph SW3.5 kmh SW 8.5 mph13.7 kmh 29.78 in1008.5 mb 0.00 in0.0 mm 0.00 in0.0 mm 0.14 in3.6 mm
05:40 PM 57.0°F13.9°C 50.9°F10.5°C 80% 3.8 mph SW6.1 kmh SW 8.5 mph13.7 kmh 29.77 in1008.1 mb 0.00 in0.0 mm 0.00 in0.0 mm 0.14 in3.6 mm
05:45 PM 56.8°F13.8°C 50.7°F10.4°C 80% 1.8 mph WSW2.9 kmh WSW 6.3 mph10.1 kmh 29.78 in1008.5 mb 0.00 in0.0 mm 0.00 in0.0 mm 0.14 in3.6 mm
05:50 PM 56.7°F13.7°C 50.9°F10.5°C 81% 2.9 mph SW4.7 kmh SW 6.3 mph10.1 kmh 29.78 in1008.5 mb 0.00 in0.0 mm 0.00 in0.0 mm 0.14 in3.6 mm
05:55 PM 56.5°F13.6°C 51.1°F10.6°C 82% 3.4 mph SW5.5 kmh SW 8.5 mph13.7 kmh 29.78 in1008.5 mb 0.00 in0.0 mm 0.00 in0.0 mm 0.14 in3.6 mm
06:00 PM 56.1°F13.4°C 50.7°F10.4°C 82% 2.7 mph WSW4.3 kmh WSW 7.4 mph11.9 kmh 29.78 in1008.5 mb 0.00 in0.0 mm 0.00 in0.0 mm 0.14 in3.6 mm
06:05 PM 55.9°F13.3°C 50.9°F10.5°C 83% 2.2 mph SW3.5 kmh SW 8.5 mph13.7 kmh 29.78 in1008.5 mb 0.00 in0.0 mm 0.00 in0.0 mm 0.14 in3.6 mm
06:10 PM 55.9°F13.3°C 50.9°F10.5°C 83% 2.7 mph WSW4.3 kmh WSW 5.4 mph8.7 kmh 29.79 in1008.8 mb 0.00 in0.0 mm 0.00 in0.0 mm 0.14 in3.6 mm
06:15 PM 55.8°F13.2°C 50.7°F10.4°C 83% 3.1 mph SW5.0 kmh SW 6.3 mph10.1 kmh 29.79 in1008.8 mb 0.00 in0.0 mm 0.00 in0.0 mm 0.14 in3.6 mm
06:20 PM 55.8°F13.2°C 50.7°F10.4°C 83% 2.9 mph WNW4.7 kmh WNW 7.4 mph11.9 kmh 29.79 in1008.8 mb 0.00 in0.0 mm 0.00 in0.0 mm 0.14 in3.6 mm
06:25 PM 55.8°F13.2°C 50.7°F10.4°C 83% 2.2 mph SSW3.5 kmh SSW 5.4 mph8.7 kmh 29.80 in1009.1 mb 0.00 in0.0 mm 0.00 in0.0 mm 0.14 in3.6 mm
06:30 PM 55.6°F13.1°C 50.5°F10.3°C 83% 3.8 mph SW6.1 kmh SW 7.4 mph11.9 kmh 29.80 in1009.1 mb 0.00 in0.0 mm 0.00 in0.0 mm 0.14 in3.6 mm
06:35 PM 55.6°F13.1°C 50.5°F10.3°C 83% 2.7 mph SSW4.3 kmh SSW 7.4 mph11.9 kmh 29.80 in1009.1 mb 0.00 in0.0 mm 0.00 in0.0 mm 0.14 in3.6 mm
06:40 PM 55.6°F13.1°C 50.5°F10.3°C 83% 3.4 mph SSW5.5 kmh SSW 6.3 mph10.1 kmh 29.80 in1009.1 mb 0.00 in0.0 mm 0.00 in0.0 mm 0.14 in3.6 mm
06:45 PM 55.4°F13.0°C 50.7°F10.4°C 84% 3.1 mph SSW5.0 kmh SSW 5.4 mph8.7 kmh 29.80 in1009.1 mb 0.00 in0.0 mm 0.00 in0.0 mm 0.14 in3.6 mm
06:50 PM 55.6°F13.1°C 50.9°F10.5°C 84% 1.3 mph WSW2.1 kmh WSW 5.4 mph8.7 kmh 29.80 in1009.1 mb 0.00 in0.0 mm 0.00 in0.0 mm 0.14 in3.6 mm
06:55 PM 55.6°F13.1°C 50.9°F10.5°C 84% 2.7 mph SSW4.3 kmh SSW 4.3 mph6.9 kmh 29.80 in1009.1 mb 0.00 in0.0 mm 0.00 in0.0 mm 0.14 in3.6 mm
07:00 PM 55.6°F13.1°C 50.9°F10.5°C 84% 3.1 mph W5.0 kmh W 7.4 mph11.9 kmh 29.80 in1009.1 mb 0.00 in0.0 mm 0.00 in0.0 mm 0.14 in3.6 mm
07:05 PM 55.4°F13.0°C 50.7°F10.4°C 84% 2.7 mph S4.3 kmh S 4.3 mph6.9 kmh 29.80 in1009.1 mb 0.00 in0.0 mm 0.00 in0.0 mm 0.14 in3.6 mm
07:10 PM 55.2°F12.9°C 50.5°F10.3°C 84% 3.1 mph SW5.0 kmh SW 7.4 mph11.9 kmh 29.80 in1009.1 mb 0.00 in0.0 mm 0.00 in0.0 mm 0.14 in3.6 mm
07:15 PM 55.2°F12.9°C 50.5°F10.3°C 84% 4.7 mph WSW7.6 kmh WSW 8.5 mph13.7 kmh 29.80 in1009.1 mb 0.00 in0.0 mm 0.00 in0.0 mm 0.14 in3.6 mm
07:20 PM 55.0°F12.8°C 50.4°F10.2°C 84% 2.9 mph SSE4.7 kmh SSE 8.5 mph13.7 kmh 29.80 in1009.1 mb 0.00 in0.0 mm 0.00 in0.0 mm 0.14 in3.6 mm
07:25 PM 55.0°F12.8°C 50.4°F10.2°C 84% 2.9 mph SW4.7 kmh SW 7.4 mph11.9 kmh 29.80 in1009.1 mb 0.00 in0.0 mm 0.00 in0.0 mm 0.14 in3.6 mm
07:30 PM 55.2°F12.9°C 50.5°F10.3°C 84% 3.4 mph SW5.5 kmh SW 7.4 mph11.9 kmh 29.80 in1009.1 mb 0.00 in0.0 mm 0.00 in0.0 mm 0.14 in3.6 mm
07:35 PM 55.0°F12.8°C 50.4°F10.2°C 84% 4.5 mph WSW7.2 kmh WSW 8.5 mph13.7 kmh 29.80 in1009.1 mb 0.00 in0.0 mm 0.00 in0.0 mm 0.14 in3.6 mm
07:40 PM 55.0°F12.8°C 50.4°F10.2°C 84% 4.3 mph SSW6.9 kmh SSW 8.5 mph13.7 kmh 29.80 in1009.1 mb 0.00 in0.0 mm 0.00 in0.0 mm 0.14 in3.6 mm
07:45 PM 55.0°F12.8°C 50.0°F10.0°C 83% 5.4 mph SW8.7 kmh SW 9.6 mph15.4 kmh 29.81 in1009.5 mb 0.00 in0.0 mm 0.00 in0.0 mm 0.14 in3.6 mm
07:50 PM 55.0°F12.8°C 50.0°F10.0°C 83% 1.6 mph W2.6 kmh W 5.4 mph8.7 kmh 29.81 in1009.5 mb 0.00 in0.0 mm 0.00 in0.0 mm 0.14 in3.6 mm
07:55 PM 55.0°F12.8°C 50.0°F10.0°C 83% 3.8 mph SW6.1 kmh SW 7.4 mph11.9 kmh 29.81 in1009.5 mb 0.00 in0.0 mm 0.00 in0.0 mm 0.14 in3.6 mm
08:00 PM 54.9°F12.7°C 49.8°F9.9°C 83% 3.6 mph W5.8 kmh W 7.4 mph11.9 kmh 29.81 in1009.5 mb 0.00 in0.0 mm 0.00 in0.0 mm 0.14 in3.6 mm
08:05 PM 54.9°F12.7°C 50.2°F10.1°C 84% 2.5 mph SW4.0 kmh SW 7.4 mph11.9 kmh 29.81 in1009.5 mb 0.00 in0.0 mm 0.00 in0.0 mm 0.14 in3.6 mm
08:10 PM 54.9°F12.7°C 50.2°F10.1°C 84% 3.1 mph S5.0 kmh S 7.4 mph11.9 kmh 29.82 in1009.8 mb 0.00 in0.0 mm 0.00 in0.0 mm 0.14 in3.6 mm
08:15 PM 55.0°F12.8°C 50.4°F10.2°C 84% 3.6 mph WNW5.8 kmh WNW 7.4 mph11.9 kmh 29.82 in1009.8 mb 0.00 in0.0 mm 0.00 in0.0 mm 0.14 in3.6 mm
08:20 PM 54.9°F12.7°C 50.2°F10.1°C 84% 2.9 mph SW4.7 kmh SW 9.6 mph15.4 kmh 29.82 in1009.8 mb 0.00 in0.0 mm 0.00 in0.0 mm 0.14 in3.6 mm
08:25 PM 54.9°F12.7°C 50.2°F10.1°C 84% 4.3 mph W6.9 kmh W 7.4 mph11.9 kmh 29.82 in1009.8 mb 0.00 in0.0 mm 0.00 in0.0 mm 0.14 in3.6 mm
08:30 PM 54.9°F12.7°C 50.4°F10.2°C 85% 3.1 mph SW5.0 kmh SW 8.5 mph13.7 kmh 29.82 in1009.8 mb 0.00 in0.0 mm 0.00 in0.0 mm 0.14 in3.6 mm
08:35 PM 54.9°F12.7°C 50.4°F10.2°C 85% 3.4 mph SW5.5 kmh SW 7.4 mph11.9 kmh 29.82 in1009.8 mb 0.00 in0.0 mm 0.00 in0.0 mm 0.14 in3.6 mm
08:40 PM 54.9°F12.7°C 50.4°F10.2°C 85% 2.2 mph SSW3.5 kmh SSW 7.4 mph11.9 kmh 29.82 in1009.8 mb 0.00 in0.0 mm 0.00 in0.0 mm 0.14 in3.6 mm
08:45 PM 54.9°F12.7°C 50.4°F10.2°C 85% 5.8 mph WSW9.3 kmh WSW 9.6 mph15.4 kmh 29.82 in1009.8 mb 0.00 in0.0 mm 0.00 in0.0 mm 0.14 in3.6 mm
08:50 PM 54.9°F12.7°C 50.4°F10.2°C 85% 5.1 mph SW8.2 kmh SW 8.5 mph13.7 kmh 29.82 in1009.8 mb 0.00 in0.0 mm 0.00 in0.0 mm 0.14 in3.6 mm
08:55 PM 54.9°F12.7°C 50.4°F10.2°C 85% 3.1 mph SW5.0 kmh SW 8.5 mph13.7 kmh 29.83 in1010.2 mb 0.00 in0.0 mm 0.00 in0.0 mm 0.14 in3.6 mm
09:00 PM 54.9°F12.7°C 50.4°F10.2°C 85% 3.8 mph SW6.1 kmh SW 8.5 mph13.7 kmh 29.83 in1010.2 mb 0.00 in0.0 mm 0.00 in0.0 mm 0.14 in3.6 mm
09:05 PM 54.9°F12.7°C 50.4°F10.2°C 85% 2.7 mph SW4.3 kmh SW 5.4 mph8.7 kmh 29.83 in1010.2 mb 0.00 in0.0 mm 0.00 in0.0 mm 0.14 in3.6 mm
09:10 PM 54.9°F12.7°C 50.4°F10.2°C 85% 3.6 mph SW5.8 kmh SW 7.4 mph11.9 kmh 29.83 in1010.2 mb 0.00 in0.0 mm 0.00 in0.0 mm 0.14 in3.6 mm
09:15 PM 54.9°F12.7°C 50.2°F10.1°C 84% 3.8 mph S6.1 kmh S 7.4 mph11.9 kmh 29.83 in1010.2 mb 0.00 in0.0 mm 0.00 in0.0 mm 0.14 in3.6 mm
09:20 PM 54.9°F12.7°C 50.2°F10.1°C 84% 4.3 mph SW6.9 kmh SW 8.5 mph13.7 kmh 29.83 in1010.2 mb 0.00 in0.0 mm 0.00 in0.0 mm 0.14 in3.6 mm
09:25 PM 54.9°F12.7°C 50.2°F10.1°C 84% 4.7 mph S7.6 kmh S 8.5 mph13.7 kmh 29.83 in1010.2 mb 0.00 in0.0 mm 0.00 in0.0 mm 0.14 in3.6 mm
09:30 PM 54.9°F12.7°C 50.2°F10.1°C 84% 3.8 mph SW6.1 kmh SW 8.5 mph13.7 kmh 29.83 in1010.2 mb 0.00 in0.0 mm 0.00 in0.0 mm 0.14 in3.6 mm
09:35 PM 54.9°F12.7°C 50.2°F10.1°C 84% 4.0 mph SW6.4 kmh SW 8.5 mph13.7 kmh 29.83 in1010.2 mb 0.00 in0.0 mm 0.00 in0.0 mm 0.14 in3.6 mm
09:40 PM 54.9°F12.7°C 50.2°F10.1°C 84% 5.1 mph SW8.2 kmh SW 8.5 mph13.7 kmh 29.83 in1010.2 mb 0.00 in0.0 mm 0.00 in0.0 mm 0.14 in3.6 mm
09:45 PM 54.9°F12.7°C 50.4°F10.2°C 85% 6.0 mph WSW9.7 kmh WSW 11.6 mph18.7 kmh 29.83 in1010.2 mb 0.00 in0.0 mm 0.00 in0.0 mm 0.14 in3.6 mm
09:50 PM 54.9°F12.7°C 50.4°F10.2°C 85% 4.9 mph SW7.9 kmh SW 8.5 mph13.7 kmh 29.83 in1010.2 mb 0.00 in0.0 mm 0.00 in0.0 mm 0.14 in3.6 mm
09:55 PM 54.9°F12.7°C 50.4°F10.2°C 85% 4.5 mph SSW7.2 kmh SSW 8.5 mph13.7 kmh 29.83 in1010.2 mb 0.00 in0.0 mm 0.00 in0.0 mm 0.14 in3.6 mm
10:00 PM 54.9°F12.7°C 50.4°F10.2°C 85% 4.0 mph SSW6.4 kmh SSW 6.3 mph10.1 kmh 29.83 in1010.2 mb 0.00 in0.0 mm 0.00 in0.0 mm 0.14 in3.6 mm
10:05 PM 54.9°F12.7°C 50.4°F10.2°C 85% 4.5 mph SW7.2 kmh SW 7.4 mph11.9 kmh 29.83 in1010.2 mb 0.00 in0.0 mm 0.00 in0.0 mm 0.14 in3.6 mm
10:10 PM 54.7°F12.6°C 50.2°F10.1°C 85% 5.4 mph SSW8.7 kmh SSW 8.5 mph13.7 kmh 29.83 in1010.2 mb 0.00 in0.0 mm 0.00 in0.0 mm 0.14 in3.6 mm
10:15 PM 54.7°F12.6°C 50.5°F10.3°C 86% 5.8 mph SSW9.3 kmh SSW 11.6 mph18.7 kmh 29.83 in1010.2 mb 0.00 in0.0 mm 0.00 in0.0 mm 0.14 in3.6 mm
10:20 PM 54.5°F12.5°C 50.7°F10.4°C 87% 2.9 mph S4.7 kmh S 8.5 mph13.7 kmh 29.84 in1010.5 mb 0.00 in0.0 mm 0.00 in0.0 mm 0.14 in3.6 mm
10:25 PM 54.3°F12.4°C 50.9°F10.5°C 88% 4.0 mph WSW6.4 kmh WSW 10.5 mph16.9 kmh 29.84 in1010.5 mb 0.00 in0.0 mm 0.00 in0.0 mm 0.14 in3.6 mm
10:30 PM 54.3°F12.4°C 51.1°F10.6°C 89% 2.7 mph WSW4.3 kmh WSW 8.5 mph13.7 kmh 29.84 in1010.5 mb 0.00 in0.0 mm 0.00 in0.0 mm 0.14 in3.6 mm
10:35 PM 54.1°F12.3°C 50.9°F10.5°C 89% 4.9 mph NW7.9 kmh NW 8.5 mph13.7 kmh 29.84 in1010.5 mb 0.00 in0.0 mm 0.00 in0.0 mm 0.14 in3.6 mm
10:40 PM 54.1°F12.3°C 50.9°F10.5°C 89% 4.7 mph WSW7.6 kmh WSW 10.5 mph16.9 kmh 29.84 in1010.5 mb 0.00 in0.0 mm 0.00 in0.0 mm 0.14 in3.6 mm
10:45 PM 54.1°F12.3°C 51.3°F10.7°C 90% 2.5 mph WSW4.0 kmh WSW 5.4 mph8.7 kmh 29.83 in1010.2 mb 0.00 in0.0 mm 0.00 in0.0 mm 0.14 in3.6 mm
10:50 PM 54.0°F12.2°C 51.1°F10.6°C 90% 4.7 mph SW7.6 kmh SW 9.6 mph15.4 kmh 29.84 in1010.5 mb 0.00 in0.0 mm 0.00 in0.0 mm 0.14 in3.6 mm
10:55 PM 54.0°F12.2°C 51.4°F10.8°C 91% 1.3 mph SW2.1 kmh SW 9.6 mph15.4 kmh 29.84 in1010.5 mb 0.00 in0.0 mm 0.00 in0.0 mm 0.14 in3.6 mm
11:00 PM 53.8°F12.1°C 51.3°F10.7°C 91% 2.7 mph W4.3 kmh W 5.4 mph8.7 kmh 29.84 in1010.5 mb 0.00 in0.0 mm 0.00 in0.0 mm 0.12 in3.0 mm
11:05 PM 53.8°F12.1°C 51.3°F10.7°C 91% 4.9 mph W7.9 kmh W 11.6 mph18.7 kmh 29.84 in1010.5 mb 0.00 in0.0 mm 0.00 in0.0 mm 0.12 in3.0 mm
11:10 PM 53.8°F12.1°C 51.3°F10.7°C 91% 3.1 mph SW5.0 kmh SW 9.6 mph15.4 kmh 29.84 in1010.5 mb 0.00 in0.0 mm 0.00 in0.0 mm 0.12 in3.0 mm
11:15 PM 53.6°F12.0°C 50.7°F10.4°C 90% 2.5 mph WSW4.0 kmh WSW 7.4 mph11.9 kmh 29.84 in1010.5 mb 0.00 in0.0 mm 0.00 in0.0 mm 0.12 in3.0 mm
11:20 PM 53.4°F11.9°C 50.9°F10.5°C 91% 0.7 mph SW1.1 kmh SW 4.3 mph6.9 kmh 29.84 in1010.5 mb 0.00 in0.0 mm 0.00 in0.0 mm 0.12 in3.0 mm
11:25 PM 53.4°F11.9°C 50.9°F10.5°C 91% 4.0 mph SW6.4 kmh SW 6.3 mph10.1 kmh 29.84 in1010.5 mb 0.00 in0.0 mm 0.00 in0.0 mm 0.12 in3.0 mm
11:30 PM 53.4°F11.9°C 50.5°F10.3°C 90% 2.7 mph NW4.3 kmh NW 5.4 mph8.7 kmh 29.84 in1010.5 mb 0.00 in0.0 mm 0.00 in0.0 mm 0.12 in3.0 mm
11:35 PM 53.4°F11.9°C 50.5°F10.3°C 90% 2.2 mph SW3.5 kmh SW 6.3 mph10.1 kmh 29.84 in1010.5 mb 0.00 in0.0 mm 0.00 in0.0 mm 0.12 in3.0 mm
11:40 PM 53.4°F11.9°C 50.2°F10.1°C 89% 1.8 mph WSW2.9 kmh WSW 10.5 mph16.9 kmh 29.84 in1010.5 mb 0.00 in0.0 mm 0.00 in0.0 mm 0.12 in3.0 mm
11:45 PM 53.4°F11.9°C 50.2°F10.1°C 89% 3.8 mph WSW6.1 kmh WSW 6.3 mph10.1 kmh 29.85 in1010.8 mb 0.00 in0.0 mm 0.00 in0.0 mm 0.12 in3.0 mm
11:50 PM 53.4°F11.9°C 50.0°F10.0°C 88% 4.5 mph WSW7.2 kmh WSW 10.5 mph16.9 kmh 29.85 in1010.8 mb 0.00 in0.0 mm 0.00 in0.0 mm 0.12 in3.0 mm
11:55 PM 53.4°F11.9°C 50.0°F10.0°C 88% 3.6 mph SW5.8 kmh SW 6.3 mph10.1 kmh 29.85 in1010.8 mb 0.00 in0.0 mm 0.00 in0.0 mm 0.12 in3.0 mm